HRGA4: Little River, Horatio, AR

Data processed at Wed Dec 07 23:10:03 2016 Central Standard Time


All information presented herein is the property of the government of the United States of America and may be revised or deleted at any time without prior notice.
Dissemination of this information without the expressed written consent of the Public Affairs Office, Tulsa District U.S. Army Corps of Engineers is strictly prohibited.
These data are gathered electronically and, as presented, have not undergone any form of quality control. These data are not guaranteed to be valid or correct.
Go to home page.
Go to station list.
Go to station map.

Upstream stations:

Downstream station: Previous Day
Next Day
Current Day

Display graphics.
Display DCP transmissions.


    
    SHEF ID:       HRGA4     Little River, Horatio, AR
    STATION TYPE:  STREAM GAGE
    Regulation Limits:  Stage =   21.50, Flow =   16156
    
                   PRECIP     STAGE  RIV-FLOW  BAT-LOAD
                   INCHES      FEET       CFS     VOLTS
                     GOES      GOES      GOES      GOES
       (Cen)
    12/07 01:00      0.00      6.25      1231     12.57
    12/07 02:00      0.00      6.21      1206     12.57
    12/07 03:00      0.00      6.18      1188     12.57
    12/07 04:00      0.00      6.14      1163     12.49
    12/07 05:00      0.00      6.13      1157     12.49
    12/07 06:00      0.00      6.20      1200     12.49
    12/07 07:00      0.00      6.36      1301     12.49
    12/07 08:00      0.00      6.60      1455     12.49
    12/07 09:00      0.00      6.81      1589     12.49
    12/07 10:00      0.00      6.96      1685     12.57
    12/07 11:00      0.00      7.04      1737     12.65
    12/07 12:00      0.00      7.07      1757     12.65
    12/07 13:00      0.00      7.05      1744     12.73
    12/07 14:00      0.00      7.02      1724     12.73
    12/07 15:00      0.00      6.97      1692     12.65
    12/07 16:00      0.00      6.92      1660     12.57
    12/07 17:00      0.00      6.87      1627     12.57
    12/07 18:00      0.00      6.91      1653     12.49
    12/07 19:00      0.00      7.06      1750     12.49
    12/07 20:00      0.00      7.27      1894     12.49
    12/07 21:00      0.00      7.46      2027     12.49
    12/07 22:00      0.00      7.60      2123     12.49
    12/07 23:00      0.00      7.68      2178     12.49
    12/08 00:00      ----      ----      ----      ----